createdAt,value
2023-02-21T00:00:37.524Z,1
2023-02-21T00:02:20.968Z,2
2023-02-21T00:04:04.337Z,2
2023-02-21T00:05:48.010Z,1
2023-02-21T00:07:31.459Z,2
2023-02-21T00:09:14.819Z,1
2023-02-21T00:10:58.212Z,2
2023-02-21T00:12:41.602Z,2
2023-02-21T00:14:25.008Z,2
2023-02-21T00:16:08.404Z,1
2023-02-21T00:17:51.790Z,1
2023-02-21T00:21:18.277Z,1
2023-02-21T00:23:01.667Z,1
2023-02-21T00:24:45.095Z,1
2023-02-21T00:26:28.490Z,2
2023-02-21T00:28:12.193Z,1
2023-02-21T00:29:55.254Z,1
2023-02-21T00:31:38.677Z,1
2023-02-21T00:33:22.054Z,1
2023-02-21T00:36:48.521Z,1
2023-02-21T00:38:31.920Z,1
2023-02-21T00:40:15.310Z,1
2023-02-21T00:41:58.708Z,1
2023-02-21T00:43:42.102Z,1
2023-02-21T00:45:25.479Z,1
2023-02-21T00:47:08.895Z,1
2023-02-21T00:48:52.276Z,1
2023-02-21T00:52:18.747Z,1
2023-02-21T00:54:02.175Z,1
2023-02-21T00:55:45.553Z,1
2023-02-21T00:57:28.965Z,1
2023-02-21T00:59:12.349Z,1
2023-02-21T01:00:55.844Z,1
2023-02-21T01:02:39.141Z,2
2023-02-21T01:04:22.528Z,1
2023-02-21T01:07:48.991Z,1
2023-02-21T01:09:32.413Z,2
2023-02-21T01:11:15.786Z,1
2023-02-21T01:12:59.206Z,1
2023-02-21T01:14:42.590Z,1
2023-02-21T01:16:25.984Z,1
2023-02-21T01:18:09.400Z,1
2023-02-21T01:19:52.789Z,1
2023-02-21T01:21:36.493Z,1
2023-02-21T01:23:19.863Z,2
2023-02-21T01:25:03.273Z,2
2023-02-21T01:26:46.681Z,1
2023-02-21T01:28:30.077Z,2
2023-02-21T01:30:13.482Z,1
2023-02-21T01:31:56.848Z,1
2023-02-21T01:33:40.260Z,1
2023-02-21T01:38:49.516Z,1
2023-02-21T01:40:32.890Z,1
2023-02-21T01:42:16.309Z,2
2023-02-21T01:43:59.693Z,1
2023-02-21T01:45:43.072Z,1
2023-02-21T01:47:26.459Z,1
2023-02-21T01:49:09.908Z,1
2023-02-21T01:50:53.254Z,1
2023-02-21T01:54:19.746Z,1
2023-02-21T01:56:03.134Z,1
2023-02-21T01:57:46.533Z,1
2023-02-21T01:59:29.928Z,1
2023-02-21T02:01:13.329Z,1
2023-02-21T02:02:56.728Z,1
2023-02-21T02:04:40.119Z,1
2023-02-21T02:06:23.496Z,1
2023-02-21T02:11:32.766Z,1
2023-02-21T02:13:16.146Z,1
2023-02-21T02:14:59.540Z,1
2023-02-21T02:16:42.941Z,1
2023-02-21T02:18:26.358Z,1
2023-02-21T02:20:09.741Z,1
2023-02-21T02:21:53.135Z,1
2023-02-21T02:28:45.766Z,1
2023-02-21T02:30:29.170Z,1
2023-02-21T02:32:12.604Z,1
2023-02-21T02:33:55.944Z,1
2023-02-21T02:35:39.346Z,1
2023-02-21T02:37:22.740Z,1
2023-02-21T02:39:06.142Z,1
2023-02-21T02:40:49.543Z,1
2023-02-21T02:42:32.931Z,2
2023-02-21T02:44:16.664Z,0
2023-02-21T02:46:00.026Z,1
2023-02-21T02:47:43.466Z,1
2023-02-21T02:49:26.895Z,1
2023-02-21T02:51:10.230Z,1
2023-02-21T02:52:53.616Z,1
2023-02-21T02:54:37.015Z,1
2023-02-21T02:56:20.408Z,1
2023-02-21T02:58:03.805Z,1
2023-02-21T03:01:30.281Z,2
2023-02-21T03:03:13.678Z,1
2023-02-21T03:04:57.055Z,1
2023-02-21T03:06:40.456Z,1
2023-02-21T03:08:23.865Z,1
2023-02-21T03:10:07.239Z,1
2023-02-21T03:11:50.652Z,2
2023-02-21T03:13:34.057Z,1
2023-02-21T03:15:17.457Z,2
2023-02-21T03:18:43.907Z,2
2023-02-21T03:20:27.343Z,1
2023-02-21T03:22:10.734Z,1
2023-02-21T03:23:54.113Z,1
2023-02-21T03:25:37.521Z,1
2023-02-21T03:27:20.912Z,1
2023-02-21T03:29:04.300Z,2
2023-02-21T03:30:47.696Z,1
2023-02-21T03:32:31.073Z,2
2023-02-21T03:35:57.560Z,0
2023-02-21T03:37:40.945Z,1
2023-02-21T03:39:24.428Z,1
2023-02-21T03:41:07.747Z,1
2023-02-21T03:42:51.141Z,1
2023-02-21T03:44:34.530Z,0
2023-02-21T03:46:17.931Z,1
2023-02-21T03:48:01.338Z,2
2023-02-21T03:51:27.809Z,1
2023-02-21T03:53:11.197Z,2
2023-02-21T03:54:54.595Z,2
2023-02-21T03:56:37.992Z,1
2023-02-21T03:58:21.465Z,1
2023-02-21T04:00:04.793Z,1
2023-02-21T04:01:48.176Z,1
2023-02-21T04:03:31.579Z,0
2023-02-21T04:06:58.053Z,1
2023-02-21T04:08:41.449Z,1
2023-02-21T04:10:24.854Z,1
2023-02-21T04:12:08.269Z,1
2023-02-21T04:13:51.649Z,1
2023-02-21T04:15:35.043Z,0
2023-02-21T04:17:18.429Z,1
2023-02-21T04:19:01.820Z,1
2023-02-21T04:24:11.068Z,1
2023-02-21T04:25:54.455Z,0
2023-02-21T04:27:37.972Z,1
2023-02-21T04:29:21.264Z,1
2023-02-21T04:31:04.659Z,1
2023-02-21T04:33:14.144Z,0
2023-02-21T04:34:31.437Z,1
2023-02-21T04:36:14.831Z,1
2023-02-21T04:41:24.077Z,1
2023-02-21T04:43:07.479Z,1
2023-02-21T04:44:50.874Z,1
2023-02-21T04:46:34.291Z,1
2023-02-21T04:48:17.660Z,1
2023-02-21T04:50:01.065Z,1
2023-02-21T04:51:44.460Z,1
2023-02-21T04:53:27.869Z,1
2023-02-21T04:56:54.337Z,1
2023-02-21T04:58:37.730Z,1
2023-02-21T05:00:21.124Z,1
2023-02-21T05:02:04.504Z,1
2023-02-21T05:03:47.918Z,1
2023-02-21T05:05:31.313Z,1
2023-02-21T05:07:14.710Z,1
2023-02-21T05:08:58.137Z,0
2023-02-21T05:12:24.566Z,1
2023-02-21T05:14:07.976Z,1
2023-02-21T05:15:51.370Z,1
2023-02-21T05:17:34.768Z,1
2023-02-21T05:19:18.178Z,1
2023-02-21T05:21:01.538Z,1
2023-02-21T05:22:44.960Z,1
2023-02-21T05:24:28.352Z,1
2023-02-21T05:27:54.824Z,1
2023-02-21T05:29:38.238Z,1
2023-02-21T05:31:21.602Z,1
2023-02-21T05:33:04.996Z,1
2023-02-21T05:34:48.434Z,1
2023-02-21T05:36:31.798Z,1
2023-02-21T05:38:15.189Z,1
2023-02-21T05:39:58.602Z,1
2023-02-21T05:45:07.851Z,1
2023-02-21T05:46:51.229Z,1
2023-02-21T05:48:34.617Z,0
2023-02-21T05:50:18.048Z,0
2023-02-21T05:52:01.421Z,1
2023-02-21T05:53:44.874Z,1
2023-02-21T05:55:28.206Z,1
2023-02-21T05:57:11.610Z,2
2023-02-21T06:00:38.069Z,1
2023-02-21T06:02:21.468Z,1
2023-02-21T06:04:04.890Z,1
2023-02-21T06:05:48.342Z,1
2023-02-21T06:07:31.671Z,1
2023-02-21T06:09:15.062Z,1
2023-02-21T06:10:58.457Z,1
2023-02-21T06:12:41.848Z,1
2023-02-21T06:17:51.072Z,1
2023-02-21T06:19:34.472Z,1
2023-02-21T06:21:17.899Z,1
2023-02-21T06:23:01.265Z,1
2023-02-21T06:24:44.677Z,1
2023-02-21T06:26:28.066Z,1
2023-02-21T06:28:11.457Z,1
2023-02-21T06:29:54.853Z,1
2023-02-21T06:35:04.088Z,1
2023-02-21T06:36:47.499Z,1
2023-02-21T06:38:30.902Z,1
2023-02-21T06:40:14.293Z,1
2023-02-21T06:41:57.690Z,1
2023-02-21T06:43:41.074Z,1
2023-02-21T06:45:24.473Z,0
2023-02-21T06:47:07.883Z,1
2023-02-21T06:50:34.346Z,1
2023-02-21T06:52:17.795Z,1
2023-02-21T06:54:01.150Z,1
2023-02-21T06:55:44.594Z,1
2023-02-21T06:57:27.947Z,1
2023-02-21T06:59:11.327Z,1
2023-02-21T07:00:54.735Z,0
2023-02-21T07:02:38.115Z,1
2023-02-21T07:07:47.374Z,0
2023-02-21T07:09:30.780Z,1
2023-02-21T07:11:14.153Z,1
2023-02-21T07:12:57.583Z,1
2023-02-21T07:14:40.947Z,1
2023-02-21T07:16:24.374Z,1
2023-02-21T07:18:07.744Z,1
2023-02-21T07:19:51.121Z,1
2023-02-21T07:21:34.522Z,1
2023-02-21T07:23:18.254Z,1
2023-02-21T07:25:01.641Z,2
2023-02-21T07:26:45.031Z,0
2023-02-21T07:28:28.413Z,2
2023-02-21T07:30:11.826Z,1
2023-02-21T07:31:55.219Z,1
2023-02-21T07:33:38.608Z,0
2023-02-21T07:35:21.991Z,1
2023-02-21T07:37:05.394Z,1
2023-02-21T07:38:49.107Z,1
2023-02-21T07:40:32.506Z,1
2023-02-21T07:42:15.897Z,1
2023-02-21T07:43:59.293Z,1
2023-02-21T07:45:42.676Z,1
2023-02-21T07:47:26.074Z,1
2023-02-21T07:49:09.482Z,1
2023-02-21T07:50:52.867Z,1
2023-02-21T07:56:02.116Z,2
2023-02-21T07:57:45.517Z,1
2023-02-21T07:59:28.895Z,1
2023-02-21T08:01:12.301Z,1
2023-02-21T08:02:55.695Z,1
2023-02-21T08:04:39.082Z,20
2023-02-21T08:06:22.594Z,502
2023-02-21T08:08:05.874Z,474
2023-02-21T08:11:32.366Z,407
2023-02-21T08:13:15.771Z,375
2023-02-21T08:14:59.152Z,376
2023-02-21T08:16:42.537Z,345
2023-02-21T08:18:25.950Z,300
2023-02-21T08:20:09.397Z,269
2023-02-21T08:21:52.739Z,245
2023-02-21T08:23:36.144Z,234
2023-02-21T08:27:02.649Z,576
2023-02-21T08:28:45.992Z,590
2023-02-21T08:30:29.404Z,580
2023-02-21T08:32:12.845Z,574
2023-02-21T08:33:56.191Z,570
2023-02-21T08:35:39.638Z,593
2023-02-21T08:37:23.206Z,581
2023-02-21T08:39:06.465Z,603
2023-02-21T08:42:32.845Z,536
2023-02-21T08:44:16.252Z,564
2023-02-21T08:45:59.761Z,639
2023-02-21T08:47:43.042Z,609
2023-02-21T08:49:26.440Z,491
2023-02-21T08:51:09.825Z,489
2023-02-21T08:52:53.220Z,551
2023-02-21T08:54:36.638Z,518
2023-02-21T08:58:03.098Z,486
2023-02-21T09:01:29.891Z,480
2023-02-21T09:03:13.335Z,492
2023-02-21T09:04:56.692Z,514
2023-02-21T09:06:40.092Z,484
2023-02-21T09:08:23.468Z,462
2023-02-21T09:10:06.867Z,388
2023-02-21T09:13:33.339Z,446
2023-02-21T09:15:16.743Z,444
2023-02-21T09:17:00.136Z,440
2023-02-21T09:18:43.525Z,457
2023-02-21T09:20:26.924Z,505
2023-02-21T09:22:10.314Z,528
2023-02-21T09:23:53.757Z,546
2023-02-21T09:25:37.240Z,584
2023-02-21T09:27:20.969Z,608
2023-02-21T09:29:04.264Z,603
2023-02-21T09:30:47.619Z,593
2023-02-21T09:32:31.023Z,606
2023-02-21T09:34:14.404Z,628
2023-02-21T09:35:57.842Z,609
2023-02-21T09:37:41.262Z,627
2023-02-21T09:39:24.647Z,669
2023-02-21T09:42:51.139Z,778
2023-02-21T09:44:34.493Z,778
2023-02-21T09:46:17.880Z,778
2023-02-21T09:48:01.255Z,778
2023-02-21T09:49:44.650Z,778
2023-02-21T09:51:28.046Z,776
2023-02-21T09:53:11.449Z,743
2023-02-21T09:54:54.839Z,738
2023-02-21T09:58:21.314Z,736
2023-02-21T10:00:04.709Z,760
2023-02-21T10:01:48.254Z,778
2023-02-21T10:03:31.628Z,778
2023-02-21T10:05:15.011Z,779
2023-02-21T10:06:58.296Z,779
2023-02-21T10:08:41.707Z,778
2023-02-21T10:10:25.081Z,777
2023-02-21T10:13:51.551Z,778
2023-02-21T10:15:34.960Z,778
2023-02-21T10:17:18.342Z,778
2023-02-21T10:19:01.749Z,778
2023-02-21T10:20:45.272Z,779
2023-02-21T10:22:28.551Z,778
2023-02-21T10:24:12.147Z,778
2023-02-21T10:25:55.321Z,778
2023-02-21T10:29:21.808Z,778
2023-02-21T10:31:05.191Z,778
2023-02-21T10:32:48.588Z,778
2023-02-21T10:34:32.029Z,778
2023-02-21T10:36:15.397Z,778
2023-02-21T10:37:58.851Z,778
2023-02-21T10:39:42.248Z,779
2023-02-21T10:41:25.568Z,779
2023-02-21T10:43:09.285Z,778
2023-02-21T10:44:52.694Z,779
2023-02-21T10:46:36.085Z,778
2023-02-21T10:48:19.490Z,779
2023-02-21T10:50:02.857Z,778
2023-02-21T10:51:46.255Z,779
2023-02-21T10:53:29.657Z,778
2023-02-21T10:55:13.046Z,778
2023-02-21T10:58:39.517Z,778
2023-02-21T11:00:22.915Z,779
2023-02-21T11:02:06.347Z,779
2023-02-21T11:03:49.707Z,778
2023-02-21T11:05:33.278Z,778
2023-02-21T11:07:16.511Z,779
2023-02-21T11:08:59.905Z,778
2023-02-21T11:10:43.385Z,778
2023-02-21T11:14:09.757Z,778
2023-02-21T11:15:53.193Z,779
2023-02-21T11:17:36.565Z,779
2023-02-21T11:19:19.964Z,778
2023-02-21T11:21:03.361Z,779
2023-02-21T11:22:46.759Z,777
2023-02-21T11:24:30.140Z,779
2023-02-21T11:29:39.400Z,778
2023-02-21T11:31:22.788Z,779
2023-02-21T11:33:06.189Z,779
2023-02-21T11:34:49.574Z,778
2023-02-21T11:36:32.982Z,779
2023-02-21T11:38:16.381Z,779
2023-02-21T11:39:59.788Z,778
2023-02-21T11:45:09.015Z,778
2023-02-21T11:46:52.411Z,779
2023-02-21T11:48:35.817Z,778
2023-02-21T11:50:19.195Z,779
2023-02-21T11:52:02.616Z,779
2023-02-21T11:53:45.993Z,779
2023-02-21T11:55:29.392Z,779
2023-02-21T12:00:38.653Z,779
2023-02-21T12:02:22.025Z,778
2023-02-21T12:04:05.420Z,779
2023-02-21T12:05:48.813Z,779
2023-02-21T12:07:32.209Z,779
2023-02-21T12:09:15.623Z,779
2023-02-21T12:10:59.013Z,779
2023-02-21T12:12:42.404Z,769
2023-02-21T12:14:26.129Z,779
2023-02-21T12:16:09.540Z,779
2023-02-21T12:17:52.896Z,778
2023-02-21T12:19:36.293Z,779
2023-02-21T12:21:19.688Z,778
2023-02-21T12:23:03.111Z,779
2023-02-21T12:24:46.494Z,778
2023-02-21T12:29:55.743Z,779
2023-02-21T12:31:39.136Z,779
2023-02-21T12:33:22.521Z,778
2023-02-21T12:35:05.922Z,778
2023-02-21T12:36:49.311Z,778
2023-02-21T12:38:32.710Z,779
2023-02-21T12:40:16.115Z,778
2023-02-21T12:43:42.580Z,779
2023-02-21T12:45:25.977Z,779
2023-02-21T12:47:09.376Z,778
2023-02-21T12:48:52.769Z,779
2023-02-21T12:50:36.181Z,778
2023-02-21T12:52:19.574Z,778
2023-02-21T12:54:02.957Z,775
2023-02-21T12:55:46.375Z,768
2023-02-21T12:57:30.143Z,775
2023-02-21T12:59:13.454Z,767
2023-02-21T13:00:56.859Z,764
2023-02-21T13:02:40.260Z,757
2023-02-21T13:04:23.654Z,748
2023-02-21T13:06:07.046Z,739
2023-02-21T13:07:50.468Z,736
2023-02-21T13:12:59.734Z,733
2023-02-21T13:14:43.071Z,727
2023-02-21T13:16:26.468Z,725
2023-02-21T13:18:09.864Z,716
2023-02-21T13:19:53.269Z,714
2023-02-21T13:21:36.667Z,707
2023-02-21T13:23:20.057Z,704
2023-02-21T13:28:29.312Z,686
2023-02-21T13:30:12.701Z,678
2023-02-21T13:31:56.089Z,677
2023-02-21T13:33:39.596Z,674
2023-02-21T13:35:22.877Z,670
2023-02-21T13:37:06.286Z,664
2023-02-21T13:38:49.681Z,654
2023-02-21T13:42:16.252Z,647
2023-02-21T13:43:59.574Z,647
2023-02-21T13:45:42.991Z,643
2023-02-21T13:47:26.383Z,639
2023-02-21T13:49:09.829Z,639
2023-02-21T13:50:53.207Z,639
2023-02-21T13:52:36.593Z,635
2023-02-21T13:54:20.022Z,631
2023-02-21T13:56:03.854Z,629
2023-02-21T13:57:47.111Z,623
2023-02-21T13:59:30.468Z,617
2023-02-21T14:01:13.865Z,610
2023-02-21T14:02:57.255Z,605
2023-02-21T14:04:40.669Z,600
2023-02-21T14:06:24.085Z,593
2023-02-21T14:08:07.410Z,586
2023-02-21T14:11:33.902Z,572
2023-02-21T14:13:17.290Z,555
2023-02-21T14:15:00.686Z,553
2023-02-21T14:16:44.095Z,537
2023-02-21T14:18:27.513Z,524
2023-02-21T14:20:10.860Z,505
2023-02-21T14:21:54.257Z,485
2023-02-21T14:27:03.505Z,429
2023-02-21T14:28:46.897Z,413
2023-02-21T14:30:30.273Z,403
2023-02-21T14:32:13.698Z,395
2023-02-21T14:33:57.085Z,389
2023-02-21T14:35:40.495Z,379
2023-02-21T14:37:23.880Z,370
2023-02-21T14:40:50.384Z,357
2023-02-21T14:42:33.748Z,351
2023-02-21T14:44:17.168Z,331
2023-02-21T14:46:00.589Z,328
2023-02-21T14:47:44.024Z,321
2023-02-21T14:49:27.360Z,309
2023-02-21T14:51:10.729Z,304
2023-02-21T14:52:54.131Z,293
2023-02-21T14:54:37.825Z,282
2023-02-21T14:56:21.231Z,270
2023-02-21T14:58:04.647Z,258
2023-02-21T14:59:48.035Z,245
2023-02-21T15:01:31.422Z,237
2023-02-21T15:03:14.817Z,230
2023-02-21T15:04:58.216Z,223
2023-02-21T15:10:07.458Z,207
2023-02-21T15:11:50.841Z,202
2023-02-21T15:13:34.246Z,201
2023-02-21T15:15:17.635Z,199
2023-02-21T15:17:01.023Z,194
2023-02-21T15:18:44.430Z,186
2023-02-21T15:20:27.855Z,185
2023-02-21T15:23:54.299Z,179
2023-02-21T15:25:37.696Z,176
2023-02-21T15:27:21.086Z,170
2023-02-21T15:29:04.487Z,154
2023-02-21T15:30:47.892Z,140
2023-02-21T15:32:31.338Z,146
2023-02-21T15:34:14.688Z,140
2023-02-21T15:39:23.922Z,125
2023-02-21T15:41:07.312Z,120
2023-02-21T15:42:50.718Z,117
2023-02-21T15:44:34.106Z,115
2023-02-21T15:46:17.506Z,113
2023-02-21T15:48:00.907Z,111
2023-02-21T15:49:44.302Z,109
2023-02-21T15:54:53.551Z,102
2023-02-21T15:56:36.941Z,100
2023-02-21T15:58:20.352Z,97
2023-02-21T16:00:03.707Z,93
2023-02-21T16:01:47.109Z,91
2023-02-21T16:03:30.526Z,87
2023-02-21T16:05:13.943Z,84
2023-02-21T16:06:57.317Z,81
2023-02-21T16:10:23.809Z,75
2023-02-21T16:12:07.188Z,73
2023-02-21T16:13:50.581Z,70
2023-02-21T16:15:33.975Z,69
2023-02-21T16:17:17.390Z,68
2023-02-21T16:19:00.771Z,64
2023-02-21T16:20:44.162Z,60
2023-02-21T16:22:27.562Z,58
2023-02-21T16:25:54.039Z,52
2023-02-21T16:27:37.450Z,50
2023-02-21T16:29:20.819Z,48
2023-02-21T16:31:04.225Z,45
2023-02-21T16:32:47.619Z,44
2023-02-21T16:34:31.037Z,42
2023-02-21T16:36:14.434Z,40
2023-02-21T16:37:57.817Z,38
2023-02-21T16:41:24.283Z,32
2023-02-21T16:43:07.679Z,28
2023-02-21T16:44:51.116Z,25
2023-02-21T16:46:34.494Z,21
2023-02-21T16:48:17.867Z,19
2023-02-21T16:50:01.268Z,16
2023-02-21T16:51:44.669Z,14
2023-02-21T16:53:28.071Z,12
2023-02-21T16:55:11.766Z,10
2023-02-21T16:56:55.162Z,13
2023-02-21T16:58:38.550Z,14
2023-02-21T17:00:21.991Z,13
2023-02-21T17:02:05.357Z,11
2023-02-21T17:03:48.748Z,11
2023-02-21T17:05:32.151Z,10
2023-02-21T17:07:15.547Z,10
2023-02-21T17:10:42.016Z,8
2023-02-21T17:14:08.811Z,8
2023-02-21T17:15:52.213Z,8
2023-02-21T17:17:35.591Z,8
2023-02-21T17:19:19.649Z,8
2023-02-21T17:21:02.438Z,8
2023-02-21T17:22:45.772Z,8
2023-02-21T17:26:12.269Z,8
2023-02-21T17:27:55.661Z,9
2023-02-21T17:29:39.046Z,8
2023-02-21T17:31:22.456Z,9
2023-02-21T17:33:05.846Z,9
2023-02-21T17:34:49.239Z,9
2023-02-21T17:36:32.631Z,9
2023-02-21T17:41:41.901Z,9
2023-02-21T17:43:25.298Z,8
2023-02-21T17:45:08.684Z,9
2023-02-21T17:46:52.088Z,9
2023-02-21T17:48:35.462Z,9
2023-02-21T17:50:24.779Z,9
2023-02-21T17:52:02.253Z,8
2023-02-21T17:53:45.667Z,9
2023-02-21T17:55:29.354Z,9
2023-02-21T17:57:12.764Z,8
2023-02-21T17:58:56.147Z,8
2023-02-21T18:00:39.544Z,8
2023-02-21T18:02:22.955Z,9
2023-02-21T18:04:06.356Z,10
2023-02-21T18:05:49.744Z,9
2023-02-21T18:07:33.156Z,9
2023-02-21T18:10:59.612Z,9
2023-02-21T18:12:43.021Z,9
2023-02-21T18:14:26.401Z,9
2023-02-21T18:16:09.824Z,9
2023-02-21T18:17:53.211Z,9
2023-02-21T18:19:36.605Z,9
2023-02-21T18:21:20.000Z,10
2023-02-21T18:26:29.245Z,9
2023-02-21T18:28:12.636Z,9
2023-02-21T18:29:56.024Z,9
2023-02-21T18:31:39.450Z,9
2023-02-21T18:33:22.827Z,10
2023-02-21T18:35:06.240Z,9
2023-02-21T18:36:49.639Z,10
2023-02-21T18:41:58.872Z,10
2023-02-21T18:43:42.275Z,9
2023-02-21T18:45:25.678Z,10
2023-02-21T18:47:09.065Z,10
2023-02-21T18:48:52.471Z,10
2023-02-21T18:50:35.843Z,10
2023-02-21T18:52:19.249Z,9
2023-02-21T18:54:02.643Z,10
2023-02-21T18:55:46.350Z,10
2023-02-21T18:57:29.754Z,9
2023-02-21T18:59:13.140Z,10
2023-02-21T19:00:56.535Z,9
2023-02-21T19:02:39.933Z,9
2023-02-21T19:04:23.339Z,9
2023-02-21T19:06:06.738Z,9
2023-02-21T19:07:50.125Z,10
2023-02-21T19:11:16.603Z,9
2023-02-21T19:12:59.983Z,10
2023-02-21T19:14:43.403Z,9
2023-02-21T19:16:26.784Z,7
2023-02-21T19:18:10.174Z,6
2023-02-21T19:19:53.575Z,7
2023-02-21T19:21:36.987Z,9
2023-02-21T19:23:20.376Z,9
2023-02-21T19:25:04.071Z,9
2023-02-21T19:26:47.488Z,10
2023-02-21T19:28:30.867Z,9
2023-02-21T19:30:14.287Z,8
2023-02-21T19:31:57.662Z,9
2023-02-21T19:33:41.062Z,9
2023-02-21T19:35:24.652Z,9
2023-02-21T19:37:07.968Z,10
2023-02-21T19:40:34.338Z,9
2023-02-21T19:42:17.727Z,9
2023-02-21T19:44:01.133Z,10
2023-02-21T19:45:44.523Z,9
2023-02-21T19:47:27.917Z,9
2023-02-21T19:49:11.326Z,10
2023-02-21T19:50:54.706Z,9
2023-02-21T19:52:38.090Z,10
2023-02-21T19:56:04.577Z,9
2023-02-21T19:57:47.976Z,8
2023-02-21T19:59:31.371Z,9
2023-02-21T20:01:14.766Z,9
2023-02-21T20:02:58.167Z,10
2023-02-21T20:04:41.562Z,9
2023-02-21T20:06:24.977Z,9
2023-02-21T20:08:08.351Z,10
2023-02-21T20:11:34.819Z,9
2023-02-21T20:13:18.284Z,10
2023-02-21T20:15:01.622Z,9
2023-02-21T20:16:45.025Z,10
2023-02-21T20:18:28.426Z,9
2023-02-21T20:20:11.820Z,10
2023-02-21T20:21:55.206Z,9
2023-02-21T20:23:38.607Z,10
2023-02-21T20:25:22.295Z,9
2023-02-21T20:27:05.703Z,8
2023-02-21T20:28:49.102Z,10
2023-02-21T20:32:15.897Z,9
2023-02-21T20:33:59.278Z,9
2023-02-21T20:35:42.685Z,10
2023-02-21T20:37:26.069Z,10
2023-02-21T20:40:52.546Z,8
2023-02-21T20:42:35.947Z,10
2023-02-21T20:44:19.353Z,9
2023-02-21T20:46:02.732Z,9
2023-02-21T20:47:46.139Z,9
2023-02-21T20:49:29.543Z,9
2023-02-21T20:51:12.914Z,9
2023-02-21T20:56:22.170Z,9
2023-02-21T20:58:05.575Z,10
2023-02-21T20:59:48.974Z,9
2023-02-21T21:01:32.369Z,8
2023-02-21T21:03:15.754Z,10
2023-02-21T21:04:59.161Z,9
2023-02-21T21:06:42.563Z,9
2023-02-21T21:11:51.801Z,10
2023-02-21T21:13:35.176Z,9
2023-02-21T21:15:18.584Z,9
2023-02-21T21:17:01.979Z,10
2023-02-21T21:18:45.391Z,10
2023-02-21T21:20:28.786Z,10
2023-02-21T21:22:12.165Z,9
2023-02-21T21:25:38.650Z,9
2023-02-21T21:27:22.041Z,9
2023-02-21T21:29:05.429Z,10
2023-02-21T21:30:48.821Z,11
2023-02-21T21:32:32.224Z,10
2023-02-21T21:34:15.617Z,9
2023-02-21T21:35:59.011Z,9
2023-02-21T21:37:42.414Z,9
2023-02-21T21:41:08.922Z,9
2023-02-21T21:42:52.289Z,9
2023-02-21T21:44:35.698Z,10
2023-02-21T21:46:19.090Z,10
2023-02-21T21:48:02.469Z,9
2023-02-21T21:49:45.875Z,9
2023-02-21T21:51:29.260Z,10
2023-02-21T21:54:55.755Z,10
2023-02-21T21:56:39.144Z,9
2023-02-21T21:58:22.562Z,10
2023-02-21T22:00:05.923Z,10
2023-02-21T22:01:49.324Z,9
2023-02-21T22:03:32.711Z,9
2023-02-21T22:05:16.121Z,9
2023-02-21T22:06:59.524Z,9
2023-02-21T22:10:25.988Z,9
2023-02-21T22:12:09.387Z,9
2023-02-21T22:13:52.776Z,9
2023-02-21T22:15:36.184Z,10
2023-02-21T22:17:19.578Z,9
2023-02-21T22:19:02.970Z,9
2023-02-21T22:20:46.361Z,9
2023-02-21T22:25:55.613Z,9
2023-02-21T22:27:39.015Z,10
2023-02-21T22:29:22.396Z,10
2023-02-21T22:31:05.808Z,9
2023-02-21T22:32:49.195Z,9
2023-02-21T22:34:32.590Z,9
2023-02-21T22:36:16.073Z,9
2023-02-21T22:41:25.219Z,9
2023-02-21T22:43:08.619Z,9
2023-02-21T22:44:52.024Z,9
2023-02-21T22:46:35.429Z,10
2023-02-21T22:48:18.818Z,9
2023-02-21T22:50:02.221Z,9
2023-02-21T22:51:45.600Z,9
2023-02-21T22:53:28.987Z,9
2023-02-21T22:55:12.690Z,9
2023-02-21T22:56:56.123Z,9
2023-02-21T22:58:39.498Z,9
2023-02-21T23:00:22.894Z,9
2023-02-21T23:02:06.279Z,9
2023-02-21T23:03:49.686Z,9
2023-02-21T23:05:33.082Z,9
2023-02-21T23:07:16.480Z,9
2023-02-21T23:09:00.166Z,9
2023-02-21T23:10:43.573Z,9
2023-02-21T23:12:26.954Z,9
2023-02-21T23:14:10.355Z,9
2023-02-21T23:15:53.753Z,10
2023-02-21T23:17:37.155Z,9
2023-02-21T23:19:20.553Z,9
2023-02-21T23:21:03.941Z,9
2023-02-21T23:22:47.653Z,9
2023-02-21T23:24:31.124Z,9
2023-02-21T23:26:14.446Z,9
2023-02-21T23:27:57.830Z,10
2023-02-21T23:29:41.261Z,9
2023-02-21T23:31:24.638Z,9
2023-02-21T23:33:08.044Z,9
2023-02-21T23:34:51.425Z,10
2023-02-21T23:36:35.138Z,9
2023-02-21T23:38:18.526Z,9
2023-02-21T23:40:01.933Z,10
2023-02-21T23:41:45.314Z,9
2023-02-21T23:43:28.720Z,9
2023-02-21T23:45:12.114Z,9
2023-02-21T23:46:55.520Z,9
2023-02-21T23:48:38.941Z,9
2023-02-21T23:52:05.390Z,9
2023-02-21T23:53:48.781Z,9
2023-02-21T23:55:32.183Z,9
2023-02-21T23:57:15.628Z,9
2023-02-21T23:58:58.968Z,9
